createdAt,value
2023-04-18T00:01:21.560Z,100.00
2023-04-18T00:03:52.758Z,100.00
2023-04-18T00:06:22.358Z,100.00
2023-04-18T00:08:50.288Z,100.00
2023-04-18T00:11:18.281Z,100.00
2023-04-18T00:13:47.584Z,100.00
2023-04-18T00:16:15.734Z,100.00
2023-04-18T00:18:43.851Z,100.00
2023-04-18T00:21:12.043Z,100.00
2023-04-18T00:23:39.950Z,100.00
2023-04-18T00:26:07.878Z,100.00
2023-04-18T00:28:35.784Z,100.00
2023-04-18T00:31:04.084Z,100.00
2023-04-18T00:33:34.551Z,100.00
2023-04-18T00:36:02.507Z,100.00
2023-04-18T00:38:30.491Z,100.00
2023-04-18T00:40:58.375Z,100.00
2023-04-18T00:43:26.935Z,100.00
2023-04-18T00:45:57.198Z,100.00
2023-04-18T00:48:25.987Z,100.00
2023-04-18T00:50:56.038Z,100.00
2023-04-18T00:53:24.433Z,100.00
2023-04-18T00:55:53.319Z,100.00
2023-04-18T00:58:21.317Z,100.00
2023-04-18T01:00:49.208Z,100.00
2023-04-18T01:03:18.596Z,100.00
2023-04-18T01:05:47.399Z,100.00
2023-04-18T01:08:16.448Z,100.00
2023-04-18T01:10:45.358Z,100.00
2023-04-18T01:13:18.316Z,100.00
2023-04-18T01:15:49.263Z,100.00
2023-04-18T01:18:18.088Z,100.00
2023-04-18T01:20:50.146Z,100.00
2023-04-18T01:23:21.530Z,100.00
2023-04-18T01:25:49.543Z,100.00
2023-04-18T01:28:21.601Z,100.00
2023-04-18T01:30:49.924Z,100.00
2023-04-18T01:33:17.937Z,100.00
2023-04-18T01:35:46.989Z,100.00
2023-04-18T01:38:15.119Z,100.00
2023-04-18T01:40:43.029Z,100.00
2023-04-18T01:43:10.978Z,100.00
2023-04-18T01:45:39.191Z,100.00
2023-04-18T01:48:07.256Z,100.00
2023-04-18T01:50:37.656Z,100.00
2023-04-18T01:53:05.690Z,100.00
2023-04-18T01:55:33.696Z,100.00
2023-04-18T01:58:01.606Z,100.00
2023-04-18T02:00:29.694Z,100.00
2023-04-18T02:02:59.521Z,100.00
2023-04-18T02:05:27.855Z,100.00
2023-04-18T02:07:56.072Z,100.00
2023-04-18T02:10:24.635Z,100.00
2023-04-18T02:12:52.693Z,100.00
2023-04-18T02:15:21.099Z,100.00
2023-04-18T02:17:49.310Z,100.00
2023-04-18T02:20:17.217Z,100.00
2023-04-18T02:22:45.088Z,100.00
2023-04-18T02:25:13.019Z,100.00
2023-04-18T02:27:41.329Z,100.00
2023-04-18T02:30:09.871Z,100.00
2023-04-18T02:32:37.842Z,100.00
2023-04-18T02:35:06.512Z,100.00
2023-04-18T02:37:34.490Z,100.00
2023-04-18T02:40:05.084Z,100.00
2023-04-18T02:42:33.610Z,100.00
2023-04-18T02:45:02.499Z,100.00
2023-04-18T02:47:37.573Z,100.00
2023-04-18T02:50:11.758Z,100.00
2023-04-18T02:52:40.202Z,100.00
2023-04-18T02:55:09.603Z,100.00
2023-04-18T02:57:39.899Z,100.00
2023-04-18T03:00:27.015Z,100.00
2023-04-18T03:03:02.828Z,100.00
2023-04-18T03:05:43.102Z,100.00
2023-04-18T03:08:11.830Z,100.00
2023-04-18T03:10:40.170Z,100.00
2023-04-18T03:13:08.685Z,100.00
2023-04-18T03:15:37.598Z,100.00
2023-04-18T03:18:06.355Z,100.00
2023-04-18T03:20:37.670Z,100.00
2023-04-18T03:23:08.001Z,100.00
2023-04-18T03:25:37.296Z,100.00
2023-04-18T03:28:05.871Z,100.00
2023-04-18T03:30:34.259Z,100.00
2023-04-18T03:33:03.000Z,100.00
2023-04-18T03:35:31.798Z,100.00
2023-04-18T03:37:59.874Z,100.00
2023-04-18T03:40:34.687Z,100.00
2023-04-18T03:43:07.720Z,100.00
2023-04-18T03:45:35.929Z,100.00
2023-04-18T03:48:04.282Z,100.00
2023-04-18T03:50:34.726Z,100.00
2023-04-18T03:53:04.370Z,100.00
2023-04-18T03:55:34.092Z,100.00
2023-04-18T03:58:03.299Z,100.00
2023-04-18T04:00:31.482Z,100.00
2023-04-18T04:03:02.430Z,100.00
2023-04-18T04:05:30.704Z,100.00
2023-04-18T04:07:58.720Z,100.00
2023-04-18T04:10:27.497Z,100.00
2023-04-18T04:12:55.561Z,100.00
2023-04-18T04:15:23.950Z,100.00
2023-04-18T04:17:57.266Z,100.00
2023-04-18T04:20:26.637Z,100.00
2023-04-18T04:23:01.487Z,100.00
2023-04-18T04:25:30.180Z,100.00
2023-04-18T04:28:03.161Z,100.00
2023-04-18T04:30:33.876Z,100.00
2023-04-18T04:33:02.013Z,100.00
2023-04-18T04:35:30.311Z,100.00
2023-04-18T04:37:59.079Z,100.00
2023-04-18T04:40:33.098Z,100.00
2023-04-18T04:43:15.789Z,100.00
2023-04-18T04:45:45.620Z,100.00
2023-04-18T04:48:13.615Z,100.00
2023-04-18T04:50:52.236Z,100.00
2023-04-18T04:53:20.481Z,100.00
2023-04-18T04:55:49.880Z,100.00
2023-04-18T04:58:18.661Z,100.00
2023-04-18T05:01:00.835Z,100.00
2023-04-18T05:03:29.000Z,100.00
2023-04-18T05:05:58.280Z,100.00
2023-04-18T05:08:26.332Z,100.00
2023-04-18T05:10:55.340Z,100.00
2023-04-18T05:13:23.229Z,100.00
2023-04-18T05:15:52.812Z,99.88
2023-04-18T05:18:21.028Z,100.00
2023-04-18T05:20:49.147Z,100.00
2023-04-18T05:23:17.099Z,100.00
2023-04-18T05:25:45.023Z,99.97
2023-04-18T05:28:13.004Z,99.81
2023-04-18T05:30:41.008Z,99.56
2023-04-18T05:33:08.991Z,100.00
2023-04-18T05:35:37.090Z,99.68
2023-04-18T05:38:05.012Z,99.80
2023-04-18T05:40:32.971Z,99.72
2023-04-18T05:43:01.154Z,99.91
2023-04-18T05:45:29.201Z,99.24
2023-04-18T05:47:57.340Z,98.98
2023-04-18T05:50:25.316Z,99.31
2023-04-18T05:52:53.275Z,99.14
2023-04-18T05:55:21.289Z,98.92
2023-04-18T05:57:49.196Z,98.29
2023-04-18T06:00:17.841Z,98.24
2023-04-18T06:02:46.341Z,97.34
2023-04-18T06:05:14.627Z,97.26
2023-04-18T06:07:42.955Z,98.07
2023-04-18T06:10:13.549Z,97.63
2023-04-18T06:12:41.978Z,97.77
2023-04-18T06:15:10.857Z,97.76
2023-04-18T06:17:38.966Z,97.05
2023-04-18T06:20:07.316Z,96.84
2023-04-18T06:22:35.208Z,96.68
2023-04-18T06:25:03.799Z,97.32
2023-04-18T06:27:32.144Z,97.21
2023-04-18T06:30:00.326Z,96.79
2023-04-18T06:32:28.421Z,96.56
2023-04-18T06:34:56.549Z,96.63
2023-04-18T06:37:25.000Z,96.21
2023-04-18T06:39:53.069Z,96.20
2023-04-18T06:42:22.475Z,95.92
2023-04-18T06:44:50.833Z,95.73
2023-04-18T06:47:18.901Z,94.29
2023-04-18T06:49:46.901Z,93.67
2023-04-18T06:52:14.985Z,93.42
2023-04-18T06:54:42.913Z,93.29
2023-04-18T06:57:11.361Z,92.40
2023-04-18T06:59:40.933Z,92.74
2023-04-18T07:02:08.967Z,92.29
2023-04-18T07:04:37.198Z,92.30
2023-04-18T07:07:05.460Z,91.62
2023-04-18T07:09:33.443Z,91.29
2023-04-18T07:12:01.401Z,90.40
2023-04-18T07:14:30.135Z,89.65
2023-04-18T07:17:00.949Z,88.97
2023-04-18T07:19:28.919Z,88.78
2023-04-18T07:21:56.946Z,89.17
2023-04-18T07:24:24.879Z,88.52
2023-04-18T07:26:55.086Z,88.26
2023-04-18T07:29:23.278Z,88.05
2023-04-18T07:31:51.230Z,88.30
2023-04-18T07:34:19.205Z,87.53
2023-04-18T07:36:47.171Z,87.23
2023-04-18T07:39:15.221Z,87.77
2023-04-18T07:41:43.270Z,87.29
2023-04-18T07:44:11.631Z,87.50
2023-04-18T07:46:39.892Z,86.14
2023-04-18T07:49:08.016Z,86.41
2023-04-18T07:51:36.327Z,86.49
2023-04-18T07:54:04.397Z,86.99
2023-04-18T07:56:32.370Z,85.73
2023-04-18T07:59:00.254Z,86.41
2023-04-18T08:01:28.315Z,84.82
2023-04-18T08:03:58.067Z,84.33
2023-04-18T08:06:27.134Z,84.79
2023-04-18T08:08:55.196Z,86.01
2023-04-18T08:11:23.137Z,84.08
2023-04-18T08:13:51.104Z,83.54
2023-04-18T08:16:19.045Z,83.70
2023-04-18T08:18:47.206Z,81.04
2023-04-18T08:21:15.364Z,80.84
2023-04-18T08:23:43.304Z,81.42
2023-04-18T08:26:11.304Z,79.89
2023-04-18T08:28:39.281Z,79.18
2023-04-18T08:31:07.308Z,78.55
2023-04-18T08:33:35.378Z,79.10
2023-04-18T08:36:03.338Z,78.74
2023-04-18T08:38:31.234Z,76.18
2023-04-18T08:40:59.101Z,77.90
2023-04-18T08:43:27.108Z,78.08
2023-04-18T08:45:59.382Z,77.88
2023-04-18T08:48:28.451Z,77.61
2023-04-18T08:50:58.710Z,75.19
2023-04-18T08:53:27.198Z,74.22
2023-04-18T08:55:56.545Z,74.84
2023-04-18T08:58:27.551Z,76.08
2023-04-18T09:00:55.672Z,73.82
2023-04-18T09:03:41.479Z,73.80
2023-04-18T09:06:18.751Z,74.82
2023-04-18T09:08:59.243Z,74.23
2023-04-18T09:11:29.623Z,73.32
2023-04-18T09:13:59.227Z,72.57
2023-04-18T09:16:28.034Z,71.81
2023-04-18T09:19:11.258Z,71.77
2023-04-18T09:21:41.633Z,71.11
2023-04-18T09:24:29.268Z,72.08
2023-04-18T09:26:59.952Z,70.44
2023-04-18T09:29:46.424Z,69.98
2023-04-18T09:32:27.197Z,69.53
2023-04-18T09:34:59.781Z,68.82
2023-04-18T09:37:29.383Z,68.46
2023-04-18T09:39:57.276Z,67.96
2023-04-18T09:42:27.374Z,68.56
2023-04-18T09:45:05.791Z,69.73
2023-04-18T09:47:36.598Z,68.34
2023-04-18T09:50:10.481Z,69.42
2023-04-18T09:52:42.779Z,69.17
2023-04-18T09:55:16.801Z,69.70
2023-04-18T09:57:47.324Z,69.62
2023-04-18T10:00:23.694Z,66.98
2023-04-18T10:02:51.901Z,66.61
2023-04-18T10:05:21.987Z,66.19
2023-04-18T10:07:51.091Z,67.22
2023-04-18T10:10:19.412Z,66.95
2023-04-18T10:12:48.900Z,65.03
2023-04-18T10:15:20.183Z,64.95
2023-04-18T10:20:29.736Z,65.74
2023-04-18T10:22:59.662Z,65.08
2023-04-18T10:25:39.637Z,65.67
2023-04-18T10:28:09.322Z,65.46
2023-04-18T10:30:40.291Z,64.83
2023-04-18T10:33:31.783Z,64.87
2023-04-18T10:36:05.688Z,63.67
2023-04-18T10:38:34.325Z,63.48
2023-04-18T10:41:32.694Z,60.55
2023-04-18T10:44:11.374Z,60.23
2023-04-18T10:46:40.386Z,60.25
2023-04-18T10:49:22.907Z,60.06
2023-04-18T10:52:00.309Z,60.57
2023-04-18T10:54:39.270Z,59.74
2023-04-18T10:57:11.342Z,59.41
2023-04-18T10:59:42.410Z,58.05
2023-04-18T11:02:27.311Z,58.44
2023-04-18T11:05:07.065Z,55.37
2023-04-18T11:07:40.171Z,55.46
2023-04-18T11:10:09.821Z,55.05
2023-04-18T11:12:40.197Z,54.85
2023-04-18T11:15:13.264Z,54.45
2023-04-18T11:17:41.565Z,51.39
2023-04-18T11:20:13.242Z,50.61
2023-04-18T11:22:52.372Z,51.60
2023-04-18T11:25:25.429Z,51.92
2023-04-18T11:27:55.672Z,50.50
2023-04-18T11:30:24.504Z,49.64
2023-04-18T11:32:52.492Z,49.55
2023-04-18T11:35:20.465Z,50.97
2023-04-18T11:37:50.432Z,49.99
2023-04-18T11:40:18.447Z,47.42
2023-04-18T11:42:46.674Z,49.18
2023-04-18T11:45:15.965Z,49.83
2023-04-18T11:47:46.630Z,47.56
2023-04-18T11:50:14.790Z,48.15
2023-04-18T11:52:42.943Z,44.77
2023-04-18T11:55:23.236Z,44.05
2023-04-18T11:57:53.939Z,46.06
2023-04-18T12:00:33.016Z,46.64
2023-04-18T12:03:04.496Z,44.22
2023-04-18T12:05:35.262Z,44.51
2023-04-18T12:08:20.086Z,42.99
2023-04-18T12:10:53.132Z,42.82
2023-04-18T12:13:26.955Z,44.18
2023-04-18T12:15:55.001Z,44.28
2023-04-18T12:18:24.683Z,43.94
2023-04-18T12:20:54.556Z,44.51
2023-04-18T12:23:33.845Z,43.66
2023-04-18T12:26:05.033Z,44.34
2023-04-18T12:28:35.040Z,44.29
2023-04-18T12:31:06.640Z,44.03
2023-04-18T12:33:36.849Z,43.89
2023-04-18T12:36:06.148Z,43.72
2023-04-18T12:38:35.504Z,43.73
2023-04-18T12:41:03.637Z,42.77
2023-04-18T12:43:31.545Z,43.46
2023-04-18T12:46:00.072Z,42.46
2023-04-18T12:48:28.298Z,42.96
2023-04-18T12:50:56.153Z,42.78
2023-04-18T12:53:24.011Z,42.84
2023-04-18T12:55:51.890Z,43.51
2023-04-18T12:58:20.990Z,42.87
2023-04-18T13:00:48.939Z,43.12
2023-04-18T13:03:17.053Z,42.55
2023-04-18T13:05:46.152Z,42.13
2023-04-18T13:08:17.707Z,42.46
2023-04-18T13:10:47.820Z,42.21
2023-04-18T13:13:15.989Z,41.76
2023-04-18T13:15:44.269Z,42.32
2023-04-18T13:18:12.129Z,43.07
2023-04-18T13:20:40.044Z,42.87
2023-04-18T13:23:07.962Z,43.14
2023-04-18T13:25:35.923Z,43.01
2023-04-18T13:28:03.937Z,42.28
2023-04-18T13:30:32.096Z,41.64
2023-04-18T13:33:00.236Z,43.08
2023-04-18T13:35:28.401Z,42.62
2023-04-18T13:37:56.601Z,42.65
2023-04-18T13:40:25.327Z,42.30
2023-04-18T13:42:53.376Z,42.27
2023-04-18T13:45:21.282Z,42.47
2023-04-18T13:47:49.340Z,42.65
2023-04-18T13:50:17.481Z,43.02
2023-04-18T13:52:46.406Z,43.35
2023-04-18T13:55:14.340Z,42.48
2023-04-18T13:57:42.313Z,41.04
2023-04-18T14:00:12.005Z,41.42
2023-04-18T14:02:40.748Z,39.47
2023-04-18T14:05:09.359Z,41.39
2023-04-18T14:07:38.538Z,41.99
2023-04-18T14:10:06.927Z,42.21
2023-04-18T14:12:34.933Z,41.00
2023-04-18T14:15:03.324Z,39.79
2023-04-18T14:17:31.472Z,39.91
2023-04-18T14:19:59.417Z,40.22
2023-04-18T14:22:27.308Z,40.87
2023-04-18T14:24:56.316Z,39.85
2023-04-18T14:27:26.219Z,40.30
2023-04-18T14:29:54.241Z,40.28
2023-04-18T14:32:22.272Z,39.95
2023-04-18T14:34:50.528Z,40.56
2023-04-18T14:37:18.546Z,40.30
2023-04-18T14:39:46.619Z,40.63
2023-04-18T14:42:14.517Z,40.97
2023-04-18T14:44:42.427Z,40.37
2023-04-18T14:47:10.381Z,40.50
2023-04-18T14:49:38.436Z,41.30
2023-04-18T14:52:06.371Z,41.21
2023-04-18T14:54:34.245Z,40.50
2023-04-18T14:57:02.200Z,41.07
2023-04-18T14:59:30.322Z,40.43
2023-04-18T15:01:58.349Z,41.12
2023-04-18T15:04:26.669Z,41.02
2023-04-18T15:06:54.892Z,40.35
2023-04-18T15:09:22.839Z,38.93
2023-04-18T15:11:51.756Z,39.31
2023-04-18T15:14:19.742Z,40.00
2023-04-18T15:16:50.651Z,40.30
2023-04-18T15:19:18.877Z,40.40
2023-04-18T15:21:46.850Z,39.57
2023-04-18T15:24:15.682Z,39.87
2023-04-18T15:26:44.169Z,40.28
2023-04-18T15:29:12.799Z,41.00
2023-04-18T15:31:40.816Z,41.19
2023-04-18T15:34:08.746Z,41.61
2023-04-18T15:36:37.032Z,42.06
2023-04-18T15:39:05.906Z,42.59
2023-04-18T15:41:35.705Z,42.95
2023-04-18T15:44:05.565Z,43.58
2023-04-18T15:46:37.032Z,43.97
2023-04-18T15:49:05.496Z,44.13
2023-04-18T15:51:33.487Z,44.18
2023-04-18T15:54:01.559Z,44.45
2023-04-18T15:56:32.526Z,44.76
2023-04-18T15:59:04.489Z,45.30
2023-04-18T16:01:33.217Z,45.81
2023-04-18T16:04:01.352Z,46.04
2023-04-18T16:06:31.357Z,46.08
2023-04-18T16:08:59.287Z,46.22
2023-04-18T16:11:27.727Z,46.40
2023-04-18T16:13:58.433Z,46.67
2023-04-18T16:16:28.545Z,47.20
2023-04-18T16:18:56.525Z,47.39
2023-04-18T16:21:24.452Z,47.46
2023-04-18T16:23:52.452Z,47.70
2023-04-18T16:26:21.384Z,47.83
2023-04-18T16:28:49.359Z,47.91
2023-04-18T16:31:17.289Z,48.13
2023-04-18T16:33:45.716Z,48.39
2023-04-18T16:36:14.280Z,48.37
2023-04-18T16:38:42.250Z,48.47
2023-04-18T16:41:10.814Z,48.75
2023-04-18T16:43:38.828Z,49.18
2023-04-18T16:46:06.944Z,49.22
2023-04-18T16:48:37.979Z,49.44
2023-04-18T16:51:05.959Z,49.57
2023-04-18T16:53:33.863Z,49.67
2023-04-18T16:56:03.345Z,50.11
2023-04-18T16:58:31.503Z,50.38
2023-04-18T17:01:01.861Z,50.33
2023-04-18T17:03:29.917Z,50.71
2023-04-18T17:05:58.011Z,50.86
2023-04-18T17:08:28.721Z,50.93
2023-04-18T17:10:56.803Z,51.19
2023-04-18T17:13:26.995Z,51.38
2023-04-18T17:15:55.680Z,51.86
2023-04-18T17:18:24.678Z,52.95
2023-04-18T17:20:52.697Z,54.01
2023-04-18T17:23:21.849Z,54.84
2023-04-18T17:25:49.800Z,55.59
2023-04-18T17:28:17.760Z,55.33
2023-04-18T17:30:46.051Z,57.28
2023-04-18T17:33:14.289Z,58.26
2023-04-18T17:35:42.351Z,57.89
2023-04-18T17:38:10.901Z,57.99
2023-04-18T17:40:39.774Z,58.75
2023-04-18T17:43:07.766Z,58.57
2023-04-18T17:45:35.805Z,59.25
2023-04-18T17:48:04.169Z,61.49
2023-04-18T17:50:32.403Z,61.66
2023-04-18T17:53:01.011Z,61.61
2023-04-18T17:55:29.078Z,62.59
2023-04-18T17:57:57.601Z,63.02
2023-04-18T18:00:25.768Z,62.90
2023-04-18T18:02:54.105Z,63.02
2023-04-18T18:05:22.304Z,62.10
2023-04-18T18:07:51.727Z,62.77
2023-04-18T18:10:20.623Z,63.94
2023-04-18T18:12:48.946Z,64.25
2023-04-18T18:15:18.074Z,64.73
2023-04-18T18:17:49.723Z,65.30
2023-04-18T18:20:18.266Z,65.93
2023-04-18T18:22:47.428Z,66.91
2023-04-18T18:25:15.487Z,66.20
2023-04-18T18:27:43.917Z,68.12
2023-04-18T18:30:12.119Z,68.86
2023-04-18T18:32:40.090Z,70.24
2023-04-18T18:35:08.633Z,70.34
2023-04-18T18:37:36.857Z,68.92
2023-04-18T18:40:07.002Z,69.55
2023-04-18T18:42:35.078Z,69.60
2023-04-18T18:45:04.003Z,70.88
2023-04-18T18:47:32.615Z,70.90
2023-04-18T18:50:00.999Z,70.32
2023-04-18T18:52:29.892Z,71.42
2023-04-18T18:54:57.848Z,71.22
2023-04-18T18:57:26.206Z,70.79
2023-04-18T18:59:55.839Z,71.35
2023-04-18T19:02:24.506Z,72.00
2023-04-18T19:04:52.840Z,72.27
2023-04-18T19:07:20.851Z,71.56
2023-04-18T19:09:49.570Z,71.27
2023-04-18T19:12:17.527Z,72.63
2023-04-18T19:14:46.954Z,73.30
2023-04-18T19:17:18.030Z,73.30
2023-04-18T19:19:45.941Z,73.01
2023-04-18T19:22:13.873Z,72.90
2023-04-18T19:24:41.816Z,73.10
2023-04-18T19:27:09.933Z,72.49
2023-04-18T19:29:37.947Z,72.83
2023-04-18T19:32:06.573Z,73.33
2023-04-18T19:34:34.607Z,73.64
2023-04-18T19:37:02.855Z,74.31
2023-04-18T19:39:31.227Z,74.62
2023-04-18T19:42:04.496Z,74.74
2023-04-18T19:44:32.704Z,74.59
2023-04-18T19:47:00.723Z,75.49
2023-04-18T19:49:28.643Z,75.04
2023-04-18T19:51:57.107Z,74.96
2023-04-18T19:54:27.728Z,75.63
2023-04-18T19:56:56.728Z,75.84
2023-04-18T19:59:25.124Z,75.88
2023-04-18T20:01:53.369Z,76.06
2023-04-18T20:04:22.507Z,76.46
2023-04-18T20:06:50.934Z,77.33
2023-04-18T20:09:19.080Z,76.91
2023-04-18T20:11:48.614Z,77.29
2023-04-18T20:14:19.002Z,77.78
2023-04-18T20:16:50.628Z,77.86
2023-04-18T20:19:20.197Z,78.96
2023-04-18T20:21:48.207Z,79.03
2023-04-18T20:24:16.428Z,78.96
2023-04-18T20:26:44.562Z,78.89
2023-04-18T20:29:13.081Z,79.44
2023-04-18T20:31:43.027Z,80.08
2023-04-18T20:34:11.700Z,80.55
2023-04-18T20:36:43.034Z,80.61
2023-04-18T20:39:12.904Z,80.11
2023-04-18T20:41:46.939Z,80.81
2023-04-18T20:44:16.186Z,81.00
2023-04-18T20:46:44.102Z,80.89
2023-04-18T20:49:12.278Z,81.09
2023-04-18T20:51:40.435Z,81.65
2023-04-18T20:54:08.674Z,81.50
2023-04-18T20:56:39.856Z,81.78
2023-04-18T20:59:08.672Z,81.75
2023-04-18T21:01:37.246Z,81.05
2023-04-18T21:04:05.928Z,80.86
2023-04-18T21:06:40.989Z,80.84
2023-04-18T21:09:12.704Z,80.96
2023-04-18T21:11:41.229Z,81.01
2023-04-18T21:14:09.269Z,80.90
2023-04-18T21:16:43.020Z,80.47
2023-04-18T21:19:11.612Z,80.52
2023-04-18T21:21:39.535Z,80.35
2023-04-18T21:24:07.534Z,80.67
2023-04-18T21:26:35.564Z,81.02
2023-04-18T21:29:04.960Z,81.26
2023-04-18T21:31:34.808Z,81.59
2023-04-18T21:34:05.188Z,82.72
2023-04-18T21:36:33.224Z,83.24
2023-04-18T21:39:01.293Z,82.97
2023-04-18T21:41:30.115Z,84.23
2023-04-18T21:43:58.030Z,84.81
2023-04-18T21:46:26.087Z,85.90
2023-04-18T21:48:54.194Z,86.68
2023-04-18T21:51:22.079Z,86.03
2023-04-18T21:53:50.046Z,86.76
2023-04-18T21:56:18.046Z,86.78
2023-04-18T21:58:46.176Z,87.54
2023-04-18T22:01:14.278Z,88.20
2023-04-18T22:03:42.501Z,88.53
2023-04-18T22:06:10.701Z,88.86
2023-04-18T22:08:39.092Z,88.89
2023-04-18T22:11:11.883Z,89.65
2023-04-18T22:13:39.888Z,90.14
2023-04-18T22:16:09.531Z,90.47
2023-04-18T22:18:38.183Z,90.68
2023-04-18T22:21:06.828Z,90.97
2023-04-18T22:23:34.874Z,91.51
2023-04-18T22:26:02.831Z,91.45
2023-04-18T22:28:30.916Z,91.59
2023-04-18T22:30:58.853Z,91.75
2023-04-18T22:33:26.956Z,92.49
2023-04-18T22:35:55.756Z,92.22
2023-04-18T22:38:25.056Z,93.03
2023-04-18T22:40:53.123Z,93.60
2023-04-18T22:43:23.744Z,93.64
2023-04-18T22:45:51.796Z,94.15
2023-04-18T22:48:20.084Z,93.87
2023-04-18T22:50:49.948Z,93.34
2023-04-18T22:53:18.154Z,93.15
2023-04-18T22:55:46.747Z,93.53
2023-04-18T22:58:14.885Z,94.45
2023-04-18T23:00:43.023Z,94.39
2023-04-18T23:03:11.279Z,94.86
2023-04-18T23:05:40.857Z,94.75
2023-04-18T23:08:08.769Z,95.44
2023-04-18T23:10:36.675Z,95.97
2023-04-18T23:13:04.677Z,95.23
2023-04-18T23:15:32.653Z,95.36
2023-04-18T23:18:00.655Z,94.95
2023-04-18T23:20:28.654Z,95.75
2023-04-18T23:22:56.629Z,94.82
2023-04-18T23:25:24.598Z,94.52
2023-04-18T23:27:52.510Z,94.48
2023-04-18T23:30:20.387Z,94.58
2023-04-18T23:32:48.450Z,94.53
2023-04-18T23:35:16.573Z,93.82
2023-04-18T23:37:44.517Z,94.22
2023-04-18T23:40:12.573Z,93.84
2023-04-18T23:42:40.481Z,93.73
2023-04-18T23:45:08.590Z,94.57
2023-04-18T23:47:36.574Z,93.90
2023-04-18T23:50:04.967Z,94.00
2023-04-18T23:52:32.918Z,93.48
2023-04-18T23:55:01.821Z,93.34
2023-04-18T23:57:29.784Z,93.76
2023-04-18T23:59:57.737Z,93.95
